sensor_id;sensor_type;location;lat;lon;timestamp;P1;durP1;ratioP1;P2;durP2;ratioP2
5391;SDS011;2719;53.624;9.786;2023-08-07T00:01:37;4.97;;;0.90;;
5391;SDS011;2719;53.624;9.786;2023-08-07T00:04:04;3.40;;;0.80;;
5391;SDS011;2719;53.624;9.786;2023-08-07T00:06:32;5.43;;;0.90;;
5391;SDS011;2719;53.624;9.786;2023-08-07T00:08:59;2.70;;;0.97;;
5391;SDS011;2719;53.624;9.786;2023-08-07T00:11:25;1.53;;;0.60;;
5391;SDS011;2719;53.624;9.786;2023-08-07T00:13:53;5.23;;;0.83;;
5391;SDS011;2719;53.624;9.786;2023-08-07T00:16:19;2.40;;;0.70;;
5391;SDS011;2719;53.624;9.786;2023-08-07T00:18:46;2.27;;;0.80;;
5391;SDS011;2719;53.624;9.786;2023-08-07T00:21:13;3.33;;;0.90;;
5391;SDS011;2719;53.624;9.786;2023-08-07T00:23:41;4.83;;;0.90;;
5391;SDS011;2719;53.624;9.786;2023-08-07T00:26:07;4.60;;;0.97;;
5391;SDS011;2719;53.624;9.786;2023-08-07T00:28:34;3.43;;;0.97;;
5391;SDS011;2719;53.624;9.786;2023-08-07T00:31:00;3.87;;;1.00;;
5391;SDS011;2719;53.624;9.786;2023-08-07T00:33:27;4.37;;;1.10;;
5391;SDS011;2719;53.624;9.786;2023-08-07T00:35:54;2.50;;;0.80;;
5391;SDS011;2719;53.624;9.786;2023-08-07T00:38:20;4.50;;;0.90;;
5391;SDS011;2719;53.624;9.786;2023-08-07T00:40:49;1.47;;;0.73;;
5391;SDS011;2719;53.624;9.786;2023-08-07T00:43:15;3.03;;;1.00;;
5391;SDS011;2719;53.624;9.786;2023-08-07T00:45:42;2.10;;;0.77;;
5391;SDS011;2719;53.624;9.786;2023-08-07T00:48:11;1.93;;;0.60;;
5391;SDS011;2719;53.624;9.786;2023-08-07T00:50:38;3.10;;;0.60;;
5391;SDS011;2719;53.624;9.786;2023-08-07T00:53:06;1.57;;;0.60;;
5391;SDS011;2719;53.624;9.786;2023-08-07T00:55:33;2.33;;;0.73;;
5391;SDS011;2719;53.624;9.786;2023-08-07T00:58:01;2.50;;;0.73;;
5391;SDS011;2719;53.624;9.786;2023-08-07T01:00:28;14.43;;;1.37;;
5391;SDS011;2719;53.624;9.786;2023-08-07T01:02:55;1.60;;;1.00;;
5391;SDS011;2719;53.624;9.786;2023-08-07T01:05:22;10.20;;;0.80;;
5391;SDS011;2719;53.624;9.786;2023-08-07T01:07:50;3.40;;;0.70;;
5391;SDS011;2719;53.624;9.786;2023-08-07T01:10:20;3.90;;;0.80;;
5391;SDS011;2719;53.624;9.786;2023-08-07T01:12:52;9.80;;;1.07;;
5391;SDS011;2719;53.624;9.786;2023-08-07T01:15:28;1.53;;;0.70;;
5391;SDS011;2719;53.624;9.786;2023-08-07T01:17:58;7.10;;;1.33;;
5391;SDS011;2719;53.624;9.786;2023-08-07T01:20:25;5.33;;;0.90;;
5391;SDS011;2719;53.624;9.786;2023-08-07T01:22:53;2.10;;;1.00;;
5391;SDS011;2719;53.624;9.786;2023-08-07T01:25:20;5.53;;;0.93;;
5391;SDS011;2719;53.624;9.786;2023-08-07T01:27:50;12.50;;;0.87;;
5391;SDS011;2719;53.624;9.786;2023-08-07T01:30:29;2.07;;;0.90;;
5391;SDS011;2719;53.624;9.786;2023-08-07T01:33:02;1.97;;;0.70;;
5391;SDS011;2719;53.624;9.786;2023-08-07T01:35:36;2.37;;;0.70;;
5391;SDS011;2719;53.624;9.786;2023-08-07T01:38:08;3.10;;;0.50;;
5391;SDS011;2719;53.624;9.786;2023-08-07T01:40:37;10.87;;;1.07;;
5391;SDS011;2719;53.624;9.786;2023-08-07T01:43:04;1.63;;;0.80;;
5391;SDS011;2719;53.624;9.786;2023-08-07T01:45:31;3.00;;;0.83;;
5391;SDS011;2719;53.624;9.786;2023-08-07T01:47:58;1.43;;;0.80;;
5391;SDS011;2719;53.624;9.786;2023-08-07T01:50:26;2.00;;;0.70;;
5391;SDS011;2719;53.624;9.786;2023-08-07T01:52:53;1.57;;;0.70;;
5391;SDS011;2719;53.624;9.786;2023-08-07T01:55:22;4.73;;;0.70;;
5391;SDS011;2719;53.624;9.786;2023-08-07T01:57:49;7.87;;;0.90;;
5391;SDS011;2719;53.624;9.786;2023-08-07T02:00:16;3.53;;;1.00;;
5391;SDS011;2719;53.624;9.786;2023-08-07T02:02:43;1.53;;;0.60;;
5391;SDS011;2719;53.624;9.786;2023-08-07T02:05:11;2.50;;;0.80;;
5391;SDS011;2719;53.624;9.786;2023-08-07T02:07:38;4.13;;;0.60;;
5391;SDS011;2719;53.624;9.786;2023-08-07T02:10:05;4.63;;;0.93;;
5391;SDS011;2719;53.624;9.786;2023-08-07T02:12:33;2.53;;;0.87;;
5391;SDS011;2719;53.624;9.786;2023-08-07T02:15:00;6.00;;;0.80;;
5391;SDS011;2719;53.624;9.786;2023-08-07T02:17:27;7.80;;;0.70;;
5391;SDS011;2719;53.624;9.786;2023-08-07T02:19:55;2.53;;;0.60;;
5391;SDS011;2719;53.624;9.786;2023-08-07T02:22:22;3.57;;;0.53;;
5391;SDS011;2719;53.624;9.786;2023-08-07T02:24:48;1.27;;;0.60;;
5391;SDS011;2719;53.624;9.786;2023-08-07T02:27:15;2.40;;;0.60;;
5391;SDS011;2719;53.624;9.786;2023-08-07T02:29:43;5.40;;;1.13;;
5391;SDS011;2719;53.624;9.786;2023-08-07T02:32:10;4.43;;;0.80;;
5391;SDS011;2719;53.624;9.786;2023-08-07T02:34:37;3.40;;;0.60;;
5391;SDS011;2719;53.624;9.786;2023-08-07T02:37:04;6.50;;;1.80;;
5391;SDS011;2719;53.624;9.786;2023-08-07T02:39:30;2.93;;;0.70;;
5391;SDS011;2719;53.624;9.786;2023-08-07T02:41:58;2.10;;;0.70;;
5391;SDS011;2719;53.624;9.786;2023-08-07T02:44:24;2.40;;;0.70;;
5391;SDS011;2719;53.624;9.786;2023-08-07T02:46:52;1.83;;;0.70;;
5391;SDS011;2719;53.624;9.786;2023-08-07T02:49:19;3.00;;;0.70;;
5391;SDS011;2719;53.624;9.786;2023-08-07T02:51:46;1.67;;;0.50;;
5391;SDS011;2719;53.624;9.786;2023-08-07T02:54:12;2.60;;;1.00;;
5391;SDS011;2719;53.624;9.786;2023-08-07T02:56:39;1.67;;;0.50;;
5391;SDS011;2719;53.624;9.786;2023-08-07T02:59:06;10.23;;;0.70;;
5391;SDS011;2719;53.624;9.786;2023-08-07T03:01:33;3.87;;;0.70;;
5391;SDS011;2719;53.624;9.786;2023-08-07T03:04:01;3.67;;;0.70;;
5391;SDS011;2719;53.624;9.786;2023-08-07T03:06:27;15.67;;;0.80;;
5391;SDS011;2719;53.624;9.786;2023-08-07T03:08:55;3.70;;;0.77;;
5391;SDS011;2719;53.624;9.786;2023-08-07T03:11:21;1.77;;;0.70;;
5391;SDS011;2719;53.624;9.786;2023-08-07T03:13:48;2.13;;;0.77;;
5391;SDS011;2719;53.624;9.786;2023-08-07T03:16:15;5.83;;;0.70;;
5391;SDS011;2719;53.624;9.786;2023-08-07T03:18:41;2.67;;;0.70;;
5391;SDS011;2719;53.624;9.786;2023-08-07T03:21:09;3.37;;;0.70;;
5391;SDS011;2719;53.624;9.786;2023-08-07T03:23:36;3.50;;;0.70;;
5391;SDS011;2719;53.624;9.786;2023-08-07T03:26:03;7.20;;;0.60;;
5391;SDS011;2719;53.624;9.786;2023-08-07T03:28:32;4.00;;;0.77;;
5391;SDS011;2719;53.624;9.786;2023-08-07T03:30:59;3.20;;;0.70;;
5391;SDS011;2719;53.624;9.786;2023-08-07T03:33:25;5.43;;;1.17;;
5391;SDS011;2719;53.624;9.786;2023-08-07T03:35:52;6.90;;;0.90;;
5391;SDS011;2719;53.624;9.786;2023-08-07T03:38:20;2.53;;;0.60;;
5391;SDS011;2719;53.624;9.786;2023-08-07T03:40:47;5.83;;;0.90;;
5391;SDS011;2719;53.624;9.786;2023-08-07T03:43:14;2.40;;;0.60;;
5391;SDS011;2719;53.624;9.786;2023-08-07T03:45:40;2.60;;;0.60;;
5391;SDS011;2719;53.624;9.786;2023-08-07T03:48:07;2.73;;;0.60;;
5391;SDS011;2719;53.624;9.786;2023-08-07T03:50:34;2.60;;;0.70;;
5391;SDS011;2719;53.624;9.786;2023-08-07T03:53:02;2.30;;;0.67;;
5391;SDS011;2719;53.624;9.786;2023-08-07T03:55:30;4.33;;;0.90;;
5391;SDS011;2719;53.624;9.786;2023-08-07T03:57:57;7.50;;;0.80;;
5391;SDS011;2719;53.624;9.786;2023-08-07T04:00:24;5.93;;;0.90;;
5391;SDS011;2719;53.624;9.786;2023-08-07T04:02:51;7.03;;;1.20;;
5391;SDS011;2719;53.624;9.786;2023-08-07T04:05:17;5.67;;;1.20;;
5391;SDS011;2719;53.624;9.786;2023-08-07T04:07:44;7.10;;;0.90;;
5391;SDS011;2719;53.624;9.786;2023-08-07T04:10:10;13.80;;;1.03;;
5391;SDS011;2719;53.624;9.786;2023-08-07T04:12:38;4.20;;;0.90;;
5391;SDS011;2719;53.624;9.786;2023-08-07T04:15:05;9.10;;;0.90;;
5391;SDS011;2719;53.624;9.786;2023-08-07T04:17:33;7.40;;;2.10;;
5391;SDS011;2719;53.624;9.786;2023-08-07T04:20:00;5.93;;;0.70;;
5391;SDS011;2719;53.624;9.786;2023-08-07T04:22:28;8.13;;;0.93;;
5391;SDS011;2719;53.624;9.786;2023-08-07T04:24:55;13.70;;;1.33;;
5391;SDS011;2719;53.624;9.786;2023-08-07T04:27:21;3.07;;;0.90;;
5391;SDS011;2719;53.624;9.786;2023-08-07T04:29:49;11.17;;;1.00;;
5391;SDS011;2719;53.624;9.786;2023-08-07T04:32:16;4.33;;;0.70;;
5391;SDS011;2719;53.624;9.786;2023-08-07T04:34:43;3.10;;;0.90;;
5391;SDS011;2719;53.624;9.786;2023-08-07T04:37:10;5.10;;;0.70;;
5391;SDS011;2719;53.624;9.786;2023-08-07T04:39:36;5.90;;;0.93;;
5391;SDS011;2719;53.624;9.786;2023-08-07T04:42:03;7.93;;;1.37;;
5391;SDS011;2719;53.624;9.786;2023-08-07T04:44:30;4.50;;;0.80;;
5391;SDS011;2719;53.624;9.786;2023-08-07T04:46:58;9.13;;;0.90;;
5391;SDS011;2719;53.624;9.786;2023-08-07T04:49:25;8.53;;;0.90;;
5391;SDS011;2719;53.624;9.786;2023-08-07T04:51:52;3.43;;;1.00;;
5391;SDS011;2719;53.624;9.786;2023-08-07T04:54:19;11.50;;;1.10;;
5391;SDS011;2719;53.624;9.786;2023-08-07T04:56:45;11.63;;;1.37;;
5391;SDS011;2719;53.624;9.786;2023-08-07T04:59:12;2.80;;;0.80;;
5391;SDS011;2719;53.624;9.786;2023-08-07T05:01:39;3.73;;;0.87;;
5391;SDS011;2719;53.624;9.786;2023-08-07T05:04:07;6.17;;;0.87;;
5391;SDS011;2719;53.624;9.786;2023-08-07T05:06:33;6.17;;;1.30;;
5391;SDS011;2719;53.624;9.786;2023-08-07T05:09:00;5.03;;;0.97;;
5391;SDS011;2719;53.624;9.786;2023-08-07T05:11:28;6.57;;;0.80;;
5391;SDS011;2719;53.624;9.786;2023-08-07T05:13:54;11.77;;;1.17;;
5391;SDS011;2719;53.624;9.786;2023-08-07T05:16:21;6.57;;;0.90;;
5391;SDS011;2719;53.624;9.786;2023-08-07T05:18:48;10.97;;;1.50;;
5391;SDS011;2719;53.624;9.786;2023-08-07T05:21:16;4.03;;;1.10;;
5391;SDS011;2719;53.624;9.786;2023-08-07T05:23:43;4.03;;;1.00;;
5391;SDS011;2719;53.624;9.786;2023-08-07T05:26:09;5.73;;;0.90;;
5391;SDS011;2719;53.624;9.786;2023-08-07T05:28:37;6.70;;;0.90;;
5391;SDS011;2719;53.624;9.786;2023-08-07T05:31:03;7.63;;;1.00;;
5391;SDS011;2719;53.624;9.786;2023-08-07T05:33:30;13.23;;;1.67;;
5391;SDS011;2719;53.624;9.786;2023-08-07T05:35:56;3.40;;;1.10;;
5391;SDS011;2719;53.624;9.786;2023-08-07T05:38:24;7.70;;;1.10;;
5391;SDS011;2719;53.624;9.786;2023-08-07T05:40:51;4.73;;;0.83;;
5391;SDS011;2719;53.624;9.786;2023-08-07T05:43:18;19.13;;;2.07;;
5391;SDS011;2719;53.624;9.786;2023-08-07T05:45:44;6.53;;;1.03;;
5391;SDS011;2719;53.624;9.786;2023-08-07T05:48:11;10.47;;;1.40;;
5391;SDS011;2719;53.624;9.786;2023-08-07T05:50:38;13.50;;;1.87;;
5391;SDS011;2719;53.624;9.786;2023-08-07T05:53:04;6.40;;;0.90;;
5391;SDS011;2719;53.624;9.786;2023-08-07T05:55:32;9.50;;;1.10;;
5391;SDS011;2719;53.624;9.786;2023-08-07T05:57:59;9.00;;;1.23;;
5391;SDS011;2719;53.624;9.786;2023-08-07T06:00:26;9.20;;;1.10;;
5391;SDS011;2719;53.624;9.786;2023-08-07T06:02:53;4.80;;;1.00;;
5391;SDS011;2719;53.624;9.786;2023-08-07T06:05:20;5.57;;;1.20;;
5391;SDS011;2719;53.624;9.786;2023-08-07T06:07:46;7.97;;;1.17;;
5391;SDS011;2719;53.624;9.786;2023-08-07T06:10:13;3.87;;;1.07;;
5391;SDS011;2719;53.624;9.786;2023-08-07T06:12:41;16.03;;;1.47;;
5391;SDS011;2719;53.624;9.786;2023-08-07T06:15:08;8.93;;;1.07;;
5391;SDS011;2719;53.624;9.786;2023-08-07T06:17:36;6.93;;;1.27;;
5391;SDS011;2719;53.624;9.786;2023-08-07T06:20:04;11.23;;;1.73;;
5391;SDS011;2719;53.624;9.786;2023-08-07T06:22:34;11.10;;;2.00;;
5391;SDS011;2719;53.624;9.786;2023-08-07T06:25:00;13.37;;;1.37;;
5391;SDS011;2719;53.624;9.786;2023-08-07T06:27:27;11.90;;;1.47;;
5391;SDS011;2719;53.624;9.786;2023-08-07T06:29:56;11.13;;;1.40;;
5391;SDS011;2719;53.624;9.786;2023-08-07T06:32:24;12.70;;;1.50;;
5391;SDS011;2719;53.624;9.786;2023-08-07T06:34:52;6.80;;;1.60;;
5391;SDS011;2719;53.624;9.786;2023-08-07T06:37:18;10.00;;;1.50;;
5391;SDS011;2719;53.624;9.786;2023-08-07T06:39:45;13.07;;;2.10;;
5391;SDS011;2719;53.624;9.786;2023-08-07T06:42:12;12.20;;;2.10;;
5391;SDS011;2719;53.624;9.786;2023-08-07T06:44:38;9.77;;;1.80;;
5391;SDS011;2719;53.624;9.786;2023-08-07T06:47:07;7.33;;;1.47;;
5391;SDS011;2719;53.624;9.786;2023-08-07T06:49:34;25.53;;;2.83;;
5391;SDS011;2719;53.624;9.786;2023-08-07T06:52:00;11.87;;;1.93;;
5391;SDS011;2719;53.624;9.786;2023-08-07T06:54:28;21.27;;;2.80;;
5391;SDS011;2719;53.624;9.786;2023-08-07T06:56:54;14.63;;;1.97;;
5391;SDS011;2719;53.624;9.786;2023-08-07T06:59:21;18.17;;;1.40;;
5391;SDS011;2719;53.624;9.786;2023-08-07T07:01:48;15.73;;;1.97;;
5391;SDS011;2719;53.624;9.786;2023-08-07T07:04:17;7.20;;;1.53;;
5391;SDS011;2719;53.624;9.786;2023-08-07T07:06:44;10.47;;;2.33;;
5391;SDS011;2719;53.624;9.786;2023-08-07T07:09:10;16.90;;;2.20;;
5391;SDS011;2719;53.624;9.786;2023-08-07T07:11:41;11.70;;;1.80;;
5391;SDS011;2719;53.624;9.786;2023-08-07T07:14:08;11.60;;;2.50;;
5391;SDS011;2719;53.624;9.786;2023-08-07T07:16:34;10.10;;;1.90;;
5391;SDS011;2719;53.624;9.786;2023-08-07T07:19:02;11.83;;;2.30;;
5391;SDS011;2719;53.624;9.786;2023-08-07T07:21:30;11.23;;;2.40;;
5391;SDS011;2719;53.624;9.786;2023-08-07T07:23:57;14.47;;;2.10;;
5391;SDS011;2719;53.624;9.786;2023-08-07T07:26:24;8.97;;;2.20;;
5391;SDS011;2719;53.624;9.786;2023-08-07T07:28:51;13.77;;;3.10;;
5391;SDS011;2719;53.624;9.786;2023-08-07T07:31:17;9.97;;;2.13;;
5391;SDS011;2719;53.624;9.786;2023-08-07T07:33:44;11.03;;;2.97;;
5391;SDS011;2719;53.624;9.786;2023-08-07T07:36:15;11.83;;;2.33;;
5391;SDS011;2719;53.624;9.786;2023-08-07T07:38:44;9.77;;;1.97;;
5391;SDS011;2719;53.624;9.786;2023-08-07T07:41:12;9.80;;;1.77;;
5391;SDS011;2719;53.624;9.786;2023-08-07T07:43:39;12.10;;;2.50;;
5391;SDS011;2719;53.624;9.786;2023-08-07T07:46:06;11.67;;;1.77;;
5391;SDS011;2719;53.624;9.786;2023-08-07T07:48:33;8.00;;;2.30;;
5391;SDS011;2719;53.624;9.786;2023-08-07T07:51:00;16.90;;;1.87;;
5391;SDS011;2719;53.624;9.786;2023-08-07T07:53:27;11.93;;;1.73;;
5391;SDS011;2719;53.624;9.786;2023-08-07T07:55:55;10.80;;;1.63;;
5391;SDS011;2719;53.624;9.786;2023-08-07T07:58:21;11.60;;;1.80;;
5391;SDS011;2719;53.624;9.786;2023-08-07T08:00:48;10.93;;;1.33;;
5391;SDS011;2719;53.624;9.786;2023-08-07T08:03:18;16.57;;;2.87;;
5391;SDS011;2719;53.624;9.786;2023-08-07T08:05:45;15.03;;;2.53;;
5391;SDS011;2719;53.624;9.786;2023-08-07T08:08:14;8.63;;;1.60;;
5391;SDS011;2719;53.624;9.786;2023-08-07T08:10:41;25.80;;;2.57;;
5391;SDS011;2719;53.624;9.786;2023-08-07T08:13:09;11.00;;;1.83;;
5391;SDS011;2719;53.624;9.786;2023-08-07T08:15:36;15.13;;;2.90;;
5391;SDS011;2719;53.624;9.786;2023-08-07T08:18:03;8.07;;;1.77;;
5391;SDS011;2719;53.624;9.786;2023-08-07T08:20:29;9.40;;;1.43;;
5391;SDS011;2719;53.624;9.786;2023-08-07T08:22:57;11.33;;;2.23;;
5391;SDS011;2719;53.624;9.786;2023-08-07T08:25:24;19.50;;;2.00;;
5391;SDS011;2719;53.624;9.786;2023-08-07T08:27:51;15.97;;;2.30;;
5391;SDS011;2719;53.624;9.786;2023-08-07T08:30:19;11.47;;;2.60;;
5391;SDS011;2719;53.624;9.786;2023-08-07T08:32:46;12.57;;;2.33;;
5391;SDS011;2719;53.624;9.786;2023-08-07T08:35:12;20.37;;;2.23;;
5391;SDS011;2719;53.624;9.786;2023-08-07T08:37:39;13.60;;;2.80;;
5391;SDS011;2719;53.624;9.786;2023-08-07T08:40:06;10.33;;;1.80;;
5391;SDS011;2719;53.624;9.786;2023-08-07T08:42:37;16.70;;;2.10;;
5391;SDS011;2719;53.624;9.786;2023-08-07T08:45:06;14.43;;;2.50;;
5391;SDS011;2719;53.624;9.786;2023-08-07T08:47:38;11.30;;;2.20;;
5391;SDS011;2719;53.624;9.786;2023-08-07T08:50:06;15.53;;;1.90;;
5391;SDS011;2719;53.624;9.786;2023-08-07T08:52:35;21.60;;;2.83;;
5391;SDS011;2719;53.624;9.786;2023-08-07T08:55:03;11.47;;;2.10;;
5391;SDS011;2719;53.624;9.786;2023-08-07T08:57:31;17.87;;;2.60;;
5391;SDS011;2719;53.624;9.786;2023-08-07T08:59:59;20.90;;;2.70;;
5391;SDS011;2719;53.624;9.786;2023-08-07T09:02:27;11.33;;;2.07;;
5391;SDS011;2719;53.624;9.786;2023-08-07T09:04:55;11.00;;;1.77;;
5391;SDS011;2719;53.624;9.786;2023-08-07T09:07:22;11.03;;;2.23;;
5391;SDS011;2719;53.624;9.786;2023-08-07T09:09:49;11.83;;;2.23;;
5391;SDS011;2719;53.624;9.786;2023-08-07T09:12:19;12.90;;;2.53;;
5391;SDS011;2719;53.624;9.786;2023-08-07T09:14:49;15.40;;;1.53;;
5391;SDS011;2719;53.624;9.786;2023-08-07T09:17:22;17.00;;;2.63;;
5391;SDS011;2719;53.624;9.786;2023-08-07T09:19:50;11.90;;;1.90;;
5391;SDS011;2719;53.624;9.786;2023-08-07T09:22:19;20.80;;;3.00;;
5391;SDS011;2719;53.624;9.786;2023-08-07T09:24:46;16.23;;;2.00;;
5391;SDS011;2719;53.624;9.786;2023-08-07T09:27:13;16.93;;;1.80;;
5391;SDS011;2719;53.624;9.786;2023-08-07T09:29:40;14.10;;;1.83;;
5391;SDS011;2719;53.624;9.786;2023-08-07T09:32:07;23.77;;;2.43;;
5391;SDS011;2719;53.624;9.786;2023-08-07T09:34:34;6.40;;;1.40;;
5391;SDS011;2719;53.624;9.786;2023-08-07T09:37:01;14.77;;;2.03;;
5391;SDS011;2719;53.624;9.786;2023-08-07T09:39:29;18.80;;;2.00;;
5391;SDS011;2719;53.624;9.786;2023-08-07T09:41:56;11.13;;;2.00;;
5391;SDS011;2719;53.624;9.786;2023-08-07T09:44:22;12.27;;;1.67;;
5391;SDS011;2719;53.624;9.786;2023-08-07T09:46:49;30.73;;;2.20;;
5391;SDS011;2719;53.624;9.786;2023-08-07T09:49:16;13.70;;;2.13;;
5391;SDS011;2719;53.624;9.786;2023-08-07T09:51:44;15.70;;;2.33;;
5391;SDS011;2719;53.624;9.786;2023-08-07T09:54:15;20.53;;;2.17;;
5391;SDS011;2719;53.624;9.786;2023-08-07T09:56:43;15.27;;;1.77;;
5391;SDS011;2719;53.624;9.786;2023-08-07T09:59:12;13.57;;;1.93;;
5391;SDS011;2719;53.624;9.786;2023-08-07T10:01:39;8.73;;;2.57;;
5391;SDS011;2719;53.624;9.786;2023-08-07T10:04:09;19.77;;;1.50;;
5391;SDS011;2719;53.624;9.786;2023-08-07T10:06:40;7.83;;;1.93;;
5391;SDS011;2719;53.624;9.786;2023-08-07T10:09:07;9.10;;;1.97;;
5391;SDS011;2719;53.624;9.786;2023-08-07T10:11:34;16.97;;;2.03;;
5391;SDS011;2719;53.624;9.786;2023-08-07T10:14:02;10.13;;;1.53;;
5391;SDS011;2719;53.624;9.786;2023-08-07T10:16:30;16.77;;;1.63;;
5391;SDS011;2719;53.624;9.786;2023-08-07T10:18:56;18.00;;;2.23;;
5391;SDS011;2719;53.624;9.786;2023-08-07T10:21:23;7.73;;;1.20;;
5391;SDS011;2719;53.624;9.786;2023-08-07T10:23:50;7.80;;;2.03;;
5391;SDS011;2719;53.624;9.786;2023-08-07T10:26:19;10.83;;;1.93;;
5391;SDS011;2719;53.624;9.786;2023-08-07T10:28:49;13.40;;;2.07;;
5391;SDS011;2719;53.624;9.786;2023-08-07T10:31:19;15.87;;;3.17;;
5391;SDS011;2719;53.624;9.786;2023-08-07T10:33:48;13.43;;;2.03;;
5391;SDS011;2719;53.624;9.786;2023-08-07T10:36:15;10.20;;;1.70;;
5391;SDS011;2719;53.624;9.786;2023-08-07T10:38:43;24.00;;;1.80;;
5391;SDS011;2719;53.624;9.786;2023-08-07T10:41:12;17.53;;;2.00;;
5391;SDS011;2719;53.624;9.786;2023-08-07T10:43:40;7.80;;;2.30;;
5391;SDS011;2719;53.624;9.786;2023-08-07T10:46:11;10.60;;;1.37;;
5391;SDS011;2719;53.624;9.786;2023-08-07T10:48:41;11.87;;;1.93;;
5391;SDS011;2719;53.624;9.786;2023-08-07T10:51:09;13.17;;;1.73;;
5391;SDS011;2719;53.624;9.786;2023-08-07T10:53:39;11.53;;;1.30;;
5391;SDS011;2719;53.624;9.786;2023-08-07T10:56:08;16.30;;;1.70;;
5391;SDS011;2719;53.624;9.786;2023-08-07T10:58:36;7.33;;;0.90;;
5391;SDS011;2719;53.624;9.786;2023-08-07T11:01:16;17.53;;;2.03;;
5391;SDS011;2719;53.624;9.786;2023-08-07T11:03:45;9.90;;;1.50;;
5391;SDS011;2719;53.624;9.786;2023-08-07T11:06:15;18.33;;;1.73;;
5391;SDS011;2719;53.624;9.786;2023-08-07T11:08:42;7.80;;;1.63;;
5391;SDS011;2719;53.624;9.786;2023-08-07T11:11:09;10.70;;;1.30;;
5391;SDS011;2719;53.624;9.786;2023-08-07T11:13:36;13.33;;;1.60;;
5391;SDS011;2719;53.624;9.786;2023-08-07T11:16:02;16.30;;;1.53;;
5391;SDS011;2719;53.624;9.786;2023-08-07T11:18:30;9.00;;;1.20;;
5391;SDS011;2719;53.624;9.786;2023-08-07T11:20:59;19.40;;;3.03;;
5391;SDS011;2719;53.624;9.786;2023-08-07T11:23:26;10.33;;;1.27;;
5391;SDS011;2719;53.624;9.786;2023-08-07T11:25:54;6.73;;;1.23;;
5391;SDS011;2719;53.624;9.786;2023-08-07T11:28:21;3.93;;;1.13;;
5391;SDS011;2719;53.624;9.786;2023-08-07T11:30:48;12.30;;;2.33;;
5391;SDS011;2719;53.624;9.786;2023-08-07T11:33:17;9.13;;;1.67;;
5391;SDS011;2719;53.624;9.786;2023-08-07T11:35:44;11.23;;;1.73;;
5391;SDS011;2719;53.624;9.786;2023-08-07T11:38:12;10.33;;;1.93;;
5391;SDS011;2719;53.624;9.786;2023-08-07T11:40:41;12.53;;;2.00;;
5391;SDS011;2719;53.624;9.786;2023-08-07T11:43:08;13.97;;;1.87;;
5391;SDS011;2719;53.624;9.786;2023-08-07T11:45:35;11.50;;;1.17;;
5391;SDS011;2719;53.624;9.786;2023-08-07T11:48:02;14.60;;;1.77;;
5391;SDS011;2719;53.624;9.786;2023-08-07T11:50:29;13.40;;;1.73;;
5391;SDS011;2719;53.624;9.786;2023-08-07T11:52:56;13.40;;;1.20;;
5391;SDS011;2719;53.624;9.786;2023-08-07T11:55:27;6.13;;;1.20;;
5391;SDS011;2719;53.624;9.786;2023-08-07T11:57:54;7.17;;;1.20;;
5391;SDS011;2719;53.624;9.786;2023-08-07T12:00:21;19.60;;;1.43;;
5391;SDS011;2719;53.624;9.786;2023-08-07T12:02:52;9.30;;;1.10;;
5391;SDS011;2719;53.624;9.786;2023-08-07T12:05:18;10.20;;;1.30;;
5391;SDS011;2719;53.624;9.786;2023-08-07T12:07:46;9.53;;;1.40;;
5391;SDS011;2719;53.624;9.786;2023-08-07T12:10:13;2.03;;;0.80;;
5391;SDS011;2719;53.624;9.786;2023-08-07T12:12:42;7.17;;;1.33;;
5391;SDS011;2719;53.624;9.786;2023-08-07T12:15:09;8.23;;;1.40;;
5391;SDS011;2719;53.624;9.786;2023-08-07T12:17:36;3.83;;;1.13;;
5391;SDS011;2719;53.624;9.786;2023-08-07T12:20:03;6.53;;;1.30;;
5391;SDS011;2719;53.624;9.786;2023-08-07T12:22:32;4.80;;;1.40;;
5391;SDS011;2719;53.624;9.786;2023-08-07T12:24:59;7.20;;;1.40;;
5391;SDS011;2719;53.624;9.786;2023-08-07T12:27:26;14.20;;;2.23;;
5391;SDS011;2719;53.624;9.786;2023-08-07T12:29:54;15.07;;;2.00;;
5391;SDS011;2719;53.624;9.786;2023-08-07T12:32:21;9.37;;;2.30;;
5391;SDS011;2719;53.624;9.786;2023-08-07T12:34:48;11.37;;;1.67;;
5391;SDS011;2719;53.624;9.786;2023-08-07T12:37:15;12.97;;;2.27;;
5391;SDS011;2719;53.624;9.786;2023-08-07T12:39:42;15.27;;;1.77;;
5391;SDS011;2719;53.624;9.786;2023-08-07T12:42:08;21.93;;;2.63;;
5391;SDS011;2719;53.624;9.786;2023-08-07T12:44:35;4.93;;;1.43;;
5391;SDS011;2719;53.624;9.786;2023-08-07T12:47:03;10.80;;;2.00;;
5391;SDS011;2719;53.624;9.786;2023-08-07T12:49:30;12.20;;;1.77;;
5391;SDS011;2719;53.624;9.786;2023-08-07T12:51:57;16.10;;;2.37;;
5391;SDS011;2719;53.624;9.786;2023-08-07T12:54:25;6.67;;;1.37;;
5391;SDS011;2719;53.624;9.786;2023-08-07T12:56:51;6.47;;;1.30;;
5391;SDS011;2719;53.624;9.786;2023-08-07T12:59:20;9.27;;;1.10;;
5391;SDS011;2719;53.624;9.786;2023-08-07T13:01:47;3.57;;;0.70;;
5391;SDS011;2719;53.624;9.786;2023-08-07T13:04:15;9.30;;;1.43;;
5391;SDS011;2719;53.624;9.786;2023-08-07T13:06:42;14.20;;;1.40;;
5391;SDS011;2719;53.624;9.786;2023-08-07T13:09:08;9.60;;;2.30;;
5391;SDS011;2719;53.624;9.786;2023-08-07T13:11:36;7.70;;;1.43;;
5391;SDS011;2719;53.624;9.786;2023-08-07T13:14:03;6.90;;;1.20;;
5391;SDS011;2719;53.624;9.786;2023-08-07T13:16:31;22.87;;;2.97;;
5391;SDS011;2719;53.624;9.786;2023-08-07T13:18:57;13.57;;;2.40;;
5391;SDS011;2719;53.624;9.786;2023-08-07T13:21:26;19.03;;;2.40;;
5391;SDS011;2719;53.624;9.786;2023-08-07T13:23:52;11.17;;;1.53;;
5391;SDS011;2719;53.624;9.786;2023-08-07T13:26:20;18.13;;;1.97;;
5391;SDS011;2719;53.624;9.786;2023-08-07T13:28:46;13.57;;;2.70;;
5391;SDS011;2719;53.624;9.786;2023-08-07T13:31:13;10.53;;;1.63;;
5391;SDS011;2719;53.624;9.786;2023-08-07T13:33:40;21.77;;;2.87;;
5391;SDS011;2719;53.624;9.786;2023-08-07T13:36:06;15.03;;;2.53;;
5391;SDS011;2719;53.624;9.786;2023-08-07T13:38:35;18.30;;;2.10;;
5391;SDS011;2719;53.624;9.786;2023-08-07T13:41:01;11.83;;;3.13;;
5391;SDS011;2719;53.624;9.786;2023-08-07T13:43:28;11.93;;;1.87;;
5391;SDS011;2719;53.624;9.786;2023-08-07T13:45:55;15.00;;;2.20;;
5391;SDS011;2719;53.624;9.786;2023-08-07T13:48:21;16.37;;;1.90;;
5391;SDS011;2719;53.624;9.786;2023-08-07T13:50:51;29.53;;;2.67;;
5391;SDS011;2719;53.624;9.786;2023-08-07T13:53:18;16.60;;;2.43;;
5391;SDS011;2719;53.624;9.786;2023-08-07T13:55:47;18.87;;;2.97;;
5391;SDS011;2719;53.624;9.786;2023-08-07T13:58:13;10.77;;;1.90;;
5391;SDS011;2719;53.624;9.786;2023-08-07T14:00:41;19.30;;;1.97;;
5391;SDS011;2719;53.624;9.786;2023-08-07T14:03:08;11.30;;;1.40;;
5391;SDS011;2719;53.624;9.786;2023-08-07T14:05:37;6.03;;;1.97;;
5391;SDS011;2719;53.624;9.786;2023-08-07T14:08:04;10.10;;;1.30;;
5391;SDS011;2719;53.624;9.786;2023-08-07T14:10:31;10.50;;;1.73;;
5391;SDS011;2719;53.624;9.786;2023-08-07T14:12:59;6.10;;;1.53;;
5391;SDS011;2719;53.624;9.786;2023-08-07T14:15:25;8.67;;;1.87;;
5391;SDS011;2719;53.624;9.786;2023-08-07T14:17:53;9.43;;;1.67;;
5391;SDS011;2719;53.624;9.786;2023-08-07T14:20:20;7.07;;;1.30;;
5391;SDS011;2719;53.624;9.786;2023-08-07T14:22:48;16.37;;;2.80;;
5391;SDS011;2719;53.624;9.786;2023-08-07T14:25:15;10.07;;;1.57;;
5391;SDS011;2719;53.624;9.786;2023-08-07T14:27:41;12.57;;;1.77;;
5391;SDS011;2719;53.624;9.786;2023-08-07T14:30:10;13.17;;;2.17;;
5391;SDS011;2719;53.624;9.786;2023-08-07T14:32:37;10.60;;;1.80;;
5391;SDS011;2719;53.624;9.786;2023-08-07T14:35:05;14.30;;;2.33;;
5391;SDS011;2719;53.624;9.786;2023-08-07T14:37:32;9.00;;;2.73;;
5391;SDS011;2719;53.624;9.786;2023-08-07T14:39:59;11.33;;;2.60;;
5391;SDS011;2719;53.624;9.786;2023-08-07T14:42:25;18.27;;;2.10;;
5391;SDS011;2719;53.624;9.786;2023-08-07T14:44:52;26.83;;;1.87;;
5391;SDS011;2719;53.624;9.786;2023-08-07T14:47:20;13.57;;;2.57;;
5391;SDS011;2719;53.624;9.786;2023-08-07T14:49:47;9.53;;;1.77;;
5391;SDS011;2719;53.624;9.786;2023-08-07T14:52:14;9.37;;;1.93;;
5391;SDS011;2719;53.624;9.786;2023-08-07T14:54:41;11.50;;;2.30;;
5391;SDS011;2719;53.624;9.786;2023-08-07T14:57:07;9.33;;;2.10;;
5391;SDS011;2719;53.624;9.786;2023-08-07T14:59:34;16.20;;;3.03;;
5391;SDS011;2719;53.624;9.786;2023-08-07T15:02:01;23.67;;;2.20;;
5391;SDS011;2719;53.624;9.786;2023-08-07T15:04:29;20.23;;;3.20;;
5391;SDS011;2719;53.624;9.786;2023-08-07T15:06:55;10.53;;;2.50;;
5391;SDS011;2719;53.624;9.786;2023-08-07T15:09:22;10.83;;;2.13;;